createdAt,value
2022-08-25T00:00:11.167Z,96087.30
2022-08-25T00:02:58.417Z,96085.61
2022-08-25T00:05:32.294Z,96087.02
2022-08-25T00:08:01.619Z,96089.32
2022-08-25T00:10:29.593Z,96088.92
2022-08-25T00:12:56.265Z,96086.34
2022-08-25T00:15:23.005Z,96082.46
2022-08-25T00:17:50.558Z,96081.99
2022-08-25T00:20:17.418Z,96077.64
2022-08-25T00:22:44.756Z,96073.05
2022-08-25T00:25:12.233Z,96071.45
2022-08-25T00:27:38.881Z,96073.74
2022-08-25T00:30:06.263Z,96070.71
2022-08-25T00:32:33.035Z,96071.33
2022-08-25T00:35:01.964Z,96070.09
2022-08-25T00:37:29.356Z,96066.34
2022-08-25T00:39:58.084Z,96068.38
2022-08-25T00:42:26.402Z,96067.71
2022-08-25T00:44:53.983Z,96065.00
2022-08-25T00:47:24.065Z,96062.46
2022-08-25T00:49:58.395Z,96061.16
2022-08-25T00:52:29.058Z,96059.19
2022-08-25T00:55:08.324Z,96056.90
2022-08-25T00:57:42.807Z,96054.86
2022-08-25T01:00:18.805Z,96051.77
2022-08-25T01:02:45.918Z,96049.23
2022-08-25T01:05:12.705Z,96048.50
2022-08-25T01:07:46.754Z,96048.16
2022-08-25T01:10:36.833Z,96051.52
2022-08-25T01:13:55.357Z,96049.23
2022-08-25T01:17:42.022Z,96047.80
2022-08-25T01:21:28.320Z,96047.43
2022-08-25T01:24:32.211Z,96044.16
2022-08-25T01:26:59.388Z,96045.74
2022-08-25T01:29:27.572Z,96047.10
2022-08-25T01:31:58.248Z,96046.37
2022-08-25T01:34:27.674Z,96045.73
2022-08-25T01:36:56.604Z,96042.77
2022-08-25T01:39:24.365Z,96039.17
2022-08-25T01:42:12.649Z,96041.48
2022-08-25T01:44:43.624Z,96045.23
2022-08-25T01:47:14.298Z,96045.66
2022-08-25T01:50:01.904Z,96046.45
2022-08-25T01:53:22.084Z,96043.77
2022-08-25T01:55:54.253Z,96038.31
2022-08-25T01:58:54.764Z,96032.42
2022-08-25T02:02:07.441Z,96032.79
2022-08-25T02:04:34.924Z,96032.79
2022-08-25T02:07:05.143Z,96034.41
2022-08-25T02:09:33.602Z,96037.33
2022-08-25T02:12:01.626Z,96032.02
2022-08-25T02:14:28.795Z,96031.65
2022-08-25T02:16:55.685Z,96028.46
2022-08-25T02:19:25.372Z,96027.40
2022-08-25T02:21:52.952Z,96027.16
2022-08-25T02:24:19.788Z,96025.09
2022-08-25T02:26:46.529Z,96026.20
2022-08-25T02:29:13.452Z,96026.43
2022-08-25T02:31:40.490Z,96031.13
2022-08-25T02:34:08.559Z,96030.87
2022-08-25T02:36:37.218Z,96035.80
2022-08-25T02:39:06.684Z,96037.85
2022-08-25T02:41:34.789Z,96035.88
2022-08-25T02:44:03.559Z,96034.73
2022-08-25T02:46:31.769Z,96033.48
2022-08-25T02:49:00.108Z,96034.17
2022-08-25T02:51:29.488Z,96032.27
2022-08-25T02:54:01.443Z,96033.73
2022-08-25T02:56:30.543Z,96039.55
2022-08-25T02:58:58.162Z,96040.09
2022-08-25T03:01:28.499Z,96036.54
2022-08-25T03:03:58.045Z,96039.37
2022-08-25T03:06:25.056Z,96041.64
2022-08-25T03:08:53.051Z,96038.81
2022-08-25T03:11:20.507Z,96040.42
2022-08-25T03:13:50.487Z,96047.73
2022-08-25T03:16:17.990Z,96049.80
2022-08-25T03:18:45.127Z,96047.94
2022-08-25T03:21:12.791Z,96047.05
2022-08-25T03:23:41.335Z,96048.58
2022-08-25T03:26:27.366Z,96048.08
2022-08-25T03:28:57.372Z,96050.85
2022-08-25T03:31:28.339Z,96048.48
2022-08-25T03:33:56.055Z,96050.61
2022-08-25T03:36:23.961Z,96051.98
2022-08-25T03:38:51.817Z,96052.11
2022-08-25T03:41:32.029Z,96054.41
2022-08-25T03:44:00.535Z,96054.81
2022-08-25T03:46:33.952Z,96054.78
2022-08-25T03:49:02.778Z,96054.19
2022-08-25T03:51:40.266Z,96052.73
2022-08-25T03:54:08.725Z,96050.22
2022-08-25T03:57:15.542Z,96048.80
2022-08-25T04:00:39.353Z,96049.20
2022-08-25T04:03:30.039Z,96047.48
2022-08-25T04:06:37.679Z,96047.85
2022-08-25T04:09:13.244Z,96051.14
2022-08-25T04:11:44.840Z,96053.60
2022-08-25T04:14:15.916Z,96055.30
2022-08-25T04:16:54.135Z,96055.40
2022-08-25T04:19:30.911Z,96057.21
2022-08-25T04:21:59.115Z,96055.17
2022-08-25T04:24:28.311Z,96060.87
2022-08-25T04:26:56.820Z,96062.31
2022-08-25T04:29:25.978Z,96064.55
2022-08-25T04:31:54.557Z,96068.70
2022-08-25T04:34:29.931Z,96071.23
2022-08-25T04:37:04.974Z,96072.98
2022-08-25T04:39:32.369Z,96073.32
2022-08-25T04:42:00.108Z,96073.68
2022-08-25T04:44:28.450Z,96073.75
2022-08-25T04:46:55.209Z,96076.66
2022-08-25T04:49:22.832Z,96074.92
2022-08-25T04:51:49.872Z,96075.10
2022-08-25T04:54:21.077Z,96070.60
2022-08-25T04:56:50.263Z,96070.28
2022-08-25T04:59:21.644Z,96070.83
2022-08-25T05:01:50.110Z,96068.46
2022-08-25T05:05:18.992Z,96067.04
2022-08-25T05:07:47.541Z,96067.34
2022-08-25T05:10:15.444Z,96065.04
2022-08-25T05:12:43.639Z,96065.46
2022-08-25T05:15:30.427Z,96065.26
2022-08-25T05:17:58.215Z,96064.90
2022-08-25T05:20:25.566Z,96065.61
2022-08-25T05:22:53.476Z,96066.98
2022-08-25T05:25:21.158Z,96072.02
2022-08-25T05:27:47.871Z,96071.17
2022-08-25T05:30:14.654Z,96071.15
2022-08-25T05:32:42.464Z,96065.64
2022-08-25T05:35:09.760Z,96062.47
2022-08-25T05:37:39.546Z,96059.21
2022-08-25T05:40:07.867Z,96060.24
2022-08-25T05:42:43.415Z,96061.77
2022-08-25T05:45:16.710Z,96060.84
2022-08-25T05:47:52.929Z,96058.70
2022-08-25T05:50:21.150Z,96060.05
2022-08-25T05:52:54.412Z,96057.15
2022-08-25T05:55:49.854Z,96058.17
2022-08-25T05:58:19.386Z,96053.46
2022-08-25T06:00:46.724Z,96051.77
2022-08-25T06:03:14.404Z,96057.32
2022-08-25T06:05:41.713Z,96059.48
2022-08-25T06:08:08.612Z,96058.86
2022-08-25T06:10:36.763Z,96058.20
2022-08-25T06:13:04.146Z,96057.79
2022-08-25T06:15:33.534Z,96059.77
2022-08-25T06:18:02.088Z,96059.09
2022-08-25T06:20:34.820Z,96059.80
2022-08-25T06:23:01.462Z,96058.50
2022-08-25T06:25:32.009Z,96056.37
2022-08-25T06:27:58.729Z,96058.08
2022-08-25T06:30:28.845Z,96059.86
2022-08-25T06:32:56.414Z,96059.65
2022-08-25T06:35:23.527Z,96059.23
2022-08-25T06:37:50.237Z,96062.02
2022-08-25T06:40:17.016Z,96059.91
2022-08-25T06:42:48.002Z,96061.88
2022-08-25T06:45:14.952Z,96063.58
2022-08-25T06:47:42.332Z,96066.05
2022-08-25T06:50:09.615Z,96066.21
2022-08-25T06:52:37.297Z,96068.30
2022-08-25T06:55:06.268Z,96071.84
2022-08-25T06:57:35.228Z,96069.88
2022-08-25T07:00:07.372Z,96073.27
2022-08-25T07:02:35.269Z,96075.21
2022-08-25T07:05:03.622Z,96074.74
2022-08-25T07:07:44.089Z,96072.20
2022-08-25T07:10:12.352Z,96072.41
2022-08-25T07:12:39.765Z,96071.80
2022-08-25T07:15:22.195Z,96072.88
2022-08-25T07:18:00.418Z,96074.11
2022-08-25T07:21:08.884Z,96071.89
2022-08-25T07:24:56.848Z,96070.91
2022-08-25T07:28:47.458Z,96065.80
2022-08-25T07:32:34.878Z,96068.39
2022-08-25T07:36:22.385Z,96067.96
2022-08-25T07:40:10.015Z,96066.55
2022-08-25T07:43:57.963Z,96063.95
2022-08-25T07:47:45.729Z,96062.82
2022-08-25T07:51:35.152Z,96063.30
2022-08-25T07:55:22.711Z,96061.11
2022-08-25T07:59:12.583Z,96058.40
2022-08-25T08:03:01.574Z,96050.66
2022-08-25T08:06:51.612Z,96050.91
2022-08-25T08:14:51.774Z,96051.11
2022-08-25T08:18:19.138Z,96049.57
2022-08-25T08:22:06.758Z,96049.63
2022-08-25T08:25:53.704Z,96046.88
2022-08-25T08:29:01.491Z,96037.47
2022-08-25T08:31:39.495Z,96034.77
2022-08-25T08:34:19.118Z,96030.67
2022-08-25T08:37:14.853Z,96031.00
2022-08-25T08:40:06.398Z,96028.27
2022-08-25T08:42:37.009Z,96030.23
2022-08-25T08:45:44.029Z,96029.89
2022-08-25T08:49:04.687Z,96028.66
2022-08-25T08:51:43.783Z,96027.91
2022-08-25T08:54:18.100Z,96024.88
2022-08-25T08:56:54.716Z,96026.65
2022-08-25T08:59:35.488Z,96024.53
2022-08-25T09:02:39.134Z,96019.27
2022-08-25T09:05:58.054Z,96015.73
2022-08-25T09:09:06.703Z,96016.13
2022-08-25T09:12:36.600Z,96010.77
2022-08-25T09:15:52.062Z,96007.63
2022-08-25T09:18:41.207Z,96005.80
2022-08-25T09:22:01.744Z,96009.14
2022-08-25T09:25:52.957Z,96003.75
2022-08-25T09:28:44.756Z,96000.83
2022-08-25T09:32:31.351Z,95996.50
2022-08-25T09:35:28.267Z,95993.46
2022-08-25T09:38:10.082Z,95993.80
2022-08-25T09:41:40.627Z,95988.36
2022-08-25T09:45:00.968Z,95984.93
2022-08-25T09:48:40.760Z,95984.51
2022-08-25T09:51:59.271Z,95982.50
2022-08-25T09:54:49.124Z,95976.23
2022-08-25T09:58:02.702Z,95973.85
2022-08-25T10:00:58.923Z,95975.14
2022-08-25T10:04:18.879Z,95972.09
2022-08-25T10:06:53.660Z,95971.21
2022-08-25T10:09:30.738Z,95969.77
2022-08-25T10:12:02.146Z,95970.14
2022-08-25T10:14:44.518Z,95967.00
2022-08-25T10:17:33.520Z,95962.34
2022-08-25T10:20:09.376Z,95956.71
2022-08-25T10:22:37.674Z,95954.06
2022-08-25T10:25:08.129Z,95956.27
2022-08-25T10:27:46.876Z,95948.23
2022-08-25T10:30:27.582Z,95944.38
2022-08-25T10:33:27.952Z,95947.93
2022-08-25T10:36:20.367Z,95945.42
2022-08-25T10:38:58.105Z,95944.05
2022-08-25T10:41:53.390Z,95940.94
2022-08-25T10:44:57.207Z,95934.58
2022-08-25T10:47:42.169Z,95938.73
2022-08-25T10:50:30.603Z,95934.04
2022-08-25T10:53:13.079Z,95932.04
2022-08-25T10:56:02.639Z,95932.17
2022-08-25T10:59:19.638Z,95932.25
2022-08-25T11:02:12.611Z,95935.42
2022-08-25T11:05:01.326Z,95931.55
2022-08-25T11:07:36.486Z,95931.35
2022-08-25T11:10:13.524Z,95928.60
2022-08-25T11:13:03.314Z,95931.31
2022-08-25T11:15:50.249Z,95932.73
2022-08-25T11:18:31.286Z,95927.64
2022-08-25T11:21:10.991Z,95922.50
2022-08-25T11:23:52.837Z,95912.73
2022-08-25T11:26:31.037Z,95915.06
2022-08-25T11:29:11.529Z,95916.89
2022-08-25T11:31:53.560Z,95909.42
2022-08-25T11:34:22.037Z,95910.30
2022-08-25T11:36:57.090Z,95908.22
2022-08-25T11:39:42.280Z,95904.30
2022-08-25T11:42:51.676Z,95899.11
2022-08-25T11:45:54.018Z,95897.46
2022-08-25T11:48:21.460Z,95893.93
2022-08-25T11:51:00.300Z,95892.52
2022-08-25T11:54:06.933Z,95889.83
2022-08-25T11:56:37.963Z,95893.14
2022-08-25T11:59:08.142Z,95893.35
2022-08-25T12:01:43.719Z,95886.77
2022-08-25T12:04:44.345Z,95884.86
2022-08-25T12:07:19.956Z,95880.00
2022-08-25T12:09:53.121Z,95881.64
2022-08-25T12:12:43.316Z,95884.92
2022-08-25T12:15:20.808Z,95884.23
2022-08-25T12:18:28.749Z,95883.70
2022-08-25T12:20:57.981Z,95881.88
2022-08-25T12:24:01.994Z,95879.40
2022-08-25T12:26:53.407Z,95881.54
2022-08-25T12:29:29.377Z,95883.17
2022-08-25T12:31:57.062Z,95881.95
2022-08-25T12:35:07.451Z,95879.08
2022-08-25T12:37:34.898Z,95878.39
2022-08-25T12:40:05.003Z,95880.28
2022-08-25T12:42:36.685Z,95881.11
2022-08-25T12:45:19.660Z,95883.20
2022-08-25T12:47:48.817Z,95881.19
2022-08-25T12:50:40.296Z,95877.93
2022-08-25T12:53:31.781Z,95877.45
2022-08-25T12:56:23.693Z,95874.15
2022-08-25T12:59:09.782Z,95872.04
2022-08-25T13:02:03.043Z,95868.85
2022-08-25T13:04:33.716Z,95865.29
2022-08-25T13:07:13.803Z,95862.77
2022-08-25T13:10:11.414Z,95860.04
2022-08-25T13:13:03.914Z,95853.71
2022-08-25T13:15:48.729Z,95850.85
2022-08-25T13:18:26.199Z,95852.70
2022-08-25T13:21:05.623Z,95851.66
2022-08-25T13:23:37.373Z,95845.64
2022-08-25T13:26:04.822Z,95843.02
2022-08-25T13:28:35.841Z,95842.73
2022-08-25T13:31:27.543Z,95845.06
2022-08-25T13:33:58.695Z,95842.00
2022-08-25T13:36:51.903Z,95842.23
2022-08-25T13:39:45.481Z,95841.00
2022-08-25T13:42:15.551Z,95839.35
2022-08-25T13:44:52.296Z,95841.03
2022-08-25T13:47:43.578Z,95840.82
2022-08-25T13:50:18.669Z,95841.29
2022-08-25T13:52:55.133Z,95840.09
2022-08-25T13:55:38.357Z,95840.14
2022-08-25T13:58:24.592Z,95832.54
2022-08-25T14:01:22.720Z,95827.88
2022-08-25T14:04:39.601Z,95830.77
2022-08-25T14:07:20.692Z,95831.31
2022-08-25T14:10:13.056Z,95831.45
2022-08-25T14:12:46.072Z,95829.39
2022-08-25T14:15:21.647Z,95827.08
2022-08-25T14:18:02.980Z,95827.23
2022-08-25T14:20:31.688Z,95825.88
2022-08-25T14:23:03.773Z,95822.67
2022-08-25T14:25:34.739Z,95819.94
2022-08-25T14:28:07.116Z,95820.48
2022-08-25T14:30:38.831Z,95817.26
2022-08-25T14:33:07.241Z,95816.07
2022-08-25T14:35:34.113Z,95816.36
2022-08-25T14:38:08.966Z,95814.09
2022-08-25T14:40:36.659Z,95813.41
2022-08-25T14:43:03.417Z,95814.23
2022-08-25T14:45:31.824Z,95813.05
2022-08-25T14:48:04.884Z,95808.69
2022-08-25T14:50:41.897Z,95810.65
2022-08-25T14:53:11.675Z,95809.40
2022-08-25T14:55:38.514Z,95807.27
2022-08-25T14:58:07.800Z,95808.73
2022-08-25T15:00:40.085Z,95808.77
2022-08-25T15:03:07.828Z,95809.52
2022-08-25T15:05:34.675Z,95808.84
2022-08-25T15:08:19.799Z,95809.84
2022-08-25T15:10:47.563Z,95807.65
2022-08-25T15:13:14.435Z,95805.83
2022-08-25T15:15:52.287Z,95806.08
2022-08-25T15:18:21.322Z,95807.48
2022-08-25T15:20:50.192Z,95804.68
2022-08-25T15:23:18.273Z,95805.70
2022-08-25T15:25:46.954Z,95806.65
2022-08-25T15:28:17.366Z,95806.89
2022-08-25T15:30:45.915Z,95807.31
2022-08-25T15:33:13.958Z,95806.69
2022-08-25T15:35:41.599Z,95804.76
2022-08-25T15:38:10.373Z,95804.48
2022-08-25T15:40:38.481Z,95804.59
2022-08-25T15:43:05.513Z,95800.30
2022-08-25T15:45:36.270Z,95797.22
2022-08-25T15:48:04.413Z,95794.89
2022-08-25T15:50:33.796Z,95790.02
2022-08-25T15:53:00.680Z,95791.59
2022-08-25T15:55:27.416Z,95788.94
2022-08-25T15:57:54.576Z,95789.77
2022-08-25T16:00:21.670Z,95791.53
2022-08-25T16:02:49.014Z,95790.09
2022-08-25T16:05:16.387Z,95791.23
2022-08-25T16:07:45.371Z,95792.29
2022-08-25T16:10:13.056Z,95793.46
2022-08-25T16:12:42.575Z,95794.30
2022-08-25T16:15:12.213Z,95789.84
2022-08-25T16:17:40.739Z,95790.71
2022-08-25T16:20:13.669Z,95789.77
2022-08-25T16:22:41.578Z,95789.30
2022-08-25T16:25:09.681Z,95790.70
2022-08-25T16:27:38.996Z,95790.59
2022-08-25T16:30:07.680Z,95791.35
2022-08-25T16:32:35.097Z,95790.77
2022-08-25T16:35:03.562Z,95789.90
2022-08-25T16:37:32.180Z,95788.35
2022-08-25T16:39:59.109Z,95789.05
2022-08-25T16:42:27.122Z,95790.19
2022-08-25T16:44:55.532Z,95789.58
2022-08-25T16:47:25.106Z,95791.11
2022-08-25T16:49:54.131Z,95792.92
2022-08-25T16:52:40.751Z,95790.63
2022-08-25T16:55:14.479Z,95789.80
2022-08-25T16:57:45.461Z,95791.12
2022-08-25T17:00:18.477Z,95789.50
2022-08-25T17:02:47.203Z,95788.42
2022-08-25T17:05:14.168Z,95784.80
2022-08-25T17:07:40.795Z,95788.02
2022-08-25T17:10:12.430Z,95791.50
2022-08-25T17:12:40.443Z,95789.04
2022-08-25T17:15:07.551Z,95789.27
2022-08-25T17:17:35.923Z,95791.49
2022-08-25T17:20:04.728Z,95792.20
2022-08-25T17:22:32.085Z,95790.29
2022-08-25T17:25:00.995Z,95789.40
2022-08-25T17:27:28.004Z,95791.52
2022-08-25T17:29:55.373Z,95795.45
2022-08-25T17:32:22.622Z,95796.13
2022-08-25T17:34:55.747Z,95798.14
2022-08-25T17:37:22.378Z,95799.80
2022-08-25T17:39:50.589Z,95799.45
2022-08-25T17:42:30.353Z,95798.16
2022-08-25T17:44:57.994Z,95801.52
2022-08-25T17:47:24.871Z,95806.77
2022-08-25T17:49:51.501Z,95809.83
2022-08-25T17:52:19.275Z,95811.87
2022-08-25T17:54:48.600Z,95816.89
2022-08-25T17:57:16.013Z,95816.06
2022-08-25T17:59:42.699Z,95817.75
2022-08-25T18:02:10.098Z,95821.10
2022-08-25T18:04:38.145Z,95823.10
2022-08-25T18:07:05.011Z,95827.25
2022-08-25T18:09:31.888Z,95827.52
2022-08-25T18:11:58.551Z,95828.50
2022-08-25T18:14:25.759Z,95832.20
2022-08-25T18:16:53.655Z,95833.33
2022-08-25T18:19:20.894Z,95830.82
2022-08-25T18:21:47.476Z,95834.27
2022-08-25T18:24:14.034Z,95835.33
2022-08-25T18:26:41.239Z,95840.30
2022-08-25T18:29:12.521Z,95839.85
2022-08-25T18:31:40.960Z,95840.21
2022-08-25T18:34:10.767Z,95840.59
2022-08-25T18:36:38.932Z,95842.92
2022-08-25T18:39:24.938Z,95842.35
2022-08-25T18:41:51.731Z,95843.09
2022-08-25T18:44:18.606Z,95845.27
2022-08-25T18:46:46.355Z,95845.23
2022-08-25T18:49:15.873Z,95845.23
2022-08-25T18:51:44.334Z,95843.84
2022-08-25T18:54:23.183Z,95845.08
2022-08-25T18:56:54.092Z,95844.21
2022-08-25T18:59:23.610Z,95843.48
2022-08-25T19:01:53.227Z,95845.28
2022-08-25T19:04:20.472Z,95845.69
2022-08-25T19:07:01.263Z,95845.73
2022-08-25T19:09:29.307Z,95846.97
2022-08-25T19:11:59.820Z,95848.42
2022-08-25T19:14:28.011Z,95845.64
2022-08-25T19:16:57.297Z,95843.05
2022-08-25T19:19:24.583Z,95842.64
2022-08-25T19:21:51.142Z,95844.08
2022-08-25T19:24:18.618Z,95848.27
2022-08-25T19:26:46.029Z,95853.26
2022-08-25T19:29:16.546Z,95853.25
2022-08-25T19:31:46.548Z,95851.50
2022-08-25T19:34:18.160Z,95852.95
2022-08-25T19:36:46.005Z,95853.54
2022-08-25T19:39:14.402Z,95855.05
2022-08-25T19:41:45.837Z,95855.86
2022-08-25T19:44:12.629Z,95861.34
2022-08-25T19:46:42.949Z,95866.30
2022-08-25T19:49:25.701Z,95870.26
2022-08-25T19:51:54.953Z,95873.15
2022-08-25T19:54:58.120Z,95873.27
2022-08-25T19:57:28.467Z,95870.39
2022-08-25T20:00:15.287Z,95870.46
2022-08-25T20:02:42.947Z,95869.27
2022-08-25T20:05:09.865Z,95872.77
2022-08-25T20:07:36.536Z,95873.39
2022-08-25T20:10:05.933Z,95875.11
2022-08-25T20:12:33.446Z,95877.38
2022-08-25T20:15:01.749Z,95874.50
2022-08-25T20:17:28.922Z,95868.30
2022-08-25T20:19:59.081Z,95869.08
2022-08-25T20:22:31.219Z,95867.35
2022-08-25T20:25:01.847Z,95866.70
2022-08-25T20:27:34.717Z,95866.33
2022-08-25T20:30:04.124Z,95862.96
2022-08-25T20:32:32.469Z,95859.13
2022-08-25T20:35:00.512Z,95856.89
2022-08-25T20:37:27.190Z,95858.77
2022-08-25T20:39:54.360Z,95857.98
2022-08-25T20:42:21.132Z,95856.14
2022-08-25T20:44:47.803Z,95860.86
2022-08-25T20:47:14.688Z,95857.23
2022-08-25T20:49:44.721Z,95861.66
2022-08-25T20:52:11.401Z,95863.36
2022-08-25T20:54:38.780Z,95862.20
2022-08-25T20:57:05.438Z,95862.53
2022-08-25T20:59:34.696Z,95866.05
2022-08-25T21:02:02.273Z,95863.39
2022-08-25T21:04:30.529Z,95866.56
2022-08-25T21:07:00.554Z,95860.95
2022-08-25T21:09:28.626Z,95856.84
2022-08-25T21:11:57.506Z,95858.04
2022-08-25T21:14:29.322Z,95857.63
2022-08-25T21:16:56.539Z,95860.27
2022-08-25T21:19:26.790Z,95863.41
2022-08-25T21:22:00.309Z,95862.65
2022-08-25T21:24:29.573Z,95866.15
2022-08-25T21:27:03.417Z,95864.80
2022-08-25T21:29:55.201Z,95867.10
2022-08-25T21:32:57.729Z,95866.38
2022-08-25T21:35:35.238Z,95863.43
2022-08-25T21:38:28.425Z,95861.27
2022-08-25T21:41:20.637Z,95860.27
2022-08-25T21:43:50.695Z,95861.13
2022-08-25T21:46:24.527Z,95859.05
2022-08-25T21:48:53.167Z,95856.67
2022-08-25T21:51:35.351Z,95855.09
2022-08-25T21:54:10.516Z,95850.77
2022-08-25T21:56:42.546Z,95851.96
2022-08-25T21:59:13.900Z,95850.29
2022-08-25T22:01:41.392Z,95851.45
2022-08-25T22:04:10.633Z,95850.45
2022-08-25T22:06:38.399Z,95849.99
2022-08-25T22:09:07.826Z,95847.89
2022-08-25T22:11:36.187Z,95847.55
2022-08-25T22:14:04.942Z,95845.49
2022-08-25T22:16:34.317Z,95846.86
2022-08-25T22:19:03.245Z,95847.35
2022-08-25T22:21:31.360Z,95845.73
2022-08-25T22:23:59.899Z,95842.09
2022-08-25T22:26:28.790Z,95835.29
2022-08-25T22:28:57.953Z,95832.33
2022-08-25T22:31:25.221Z,95829.70
2022-08-25T22:33:51.870Z,95830.45
2022-08-25T22:36:18.338Z,95826.16
2022-08-25T22:38:46.126Z,95826.25
2022-08-25T22:41:19.119Z,95825.13
2022-08-25T22:43:50.311Z,95823.51
2022-08-25T22:46:19.945Z,95823.70
2022-08-25T22:48:46.753Z,95823.75
2022-08-25T22:51:23.734Z,95827.53
2022-08-25T22:53:51.024Z,95824.93
2022-08-25T22:56:33.358Z,95823.38
2022-08-25T22:59:03.928Z,95823.09
2022-08-25T23:01:31.469Z,95823.46
2022-08-25T23:04:02.345Z,95819.06
2022-08-25T23:06:30.131Z,95821.34
2022-08-25T23:08:56.808Z,95820.70
2022-08-25T23:11:24.912Z,95819.88
2022-08-25T23:13:55.234Z,95819.04
2022-08-25T23:16:22.750Z,95818.03
2022-08-25T23:18:49.536Z,95818.36
2022-08-25T23:21:35.147Z,95816.45
2022-08-25T23:24:05.262Z,95817.21
2022-08-25T23:26:33.343Z,95816.50
2022-08-25T23:29:00.852Z,95817.70
2022-08-25T23:31:30.644Z,95816.41
2022-08-25T23:33:57.910Z,95816.09
2022-08-25T23:36:25.189Z,95811.60
2022-08-25T23:38:52.428Z,95806.54
2022-08-25T23:41:23.743Z,95802.67
2022-08-25T23:43:52.002Z,95798.92
2022-08-25T23:46:22.842Z,95797.94
2022-08-25T23:48:53.426Z,95794.52
2022-08-25T23:51:29.508Z,95795.60
2022-08-25T23:53:56.850Z,95797.13
2022-08-25T23:56:25.955Z,95797.36
2022-08-25T23:58:52.593Z,95794.86
